sensor_id;sensor_type;location;lat;lon;timestamp;pressure;altitude;pressure_sealevel;temperature
48854;BMP280;34673;52.808;17.856;2023-06-24T00:02:23;100691.38;;;19.57
48854;BMP280;34673;52.808;17.856;2023-06-24T00:04:51;100717.19;;;19.69
48854;BMP280;34673;52.808;17.856;2023-06-24T00:07:21;100725.84;;;19.71
48854;BMP280;34673;52.808;17.856;2023-06-24T00:09:49;100717.19;;;19.69
48854;BMP280;34673;52.808;17.856;2023-06-24T00:12:16;100720.75;;;19.68
48854;BMP280;34673;52.808;17.856;2023-06-24T00:14:46;100715.56;;;19.65
48854;BMP280;34673;52.808;17.856;2023-06-24T00:17:14;100713.00;;;19.63
48854;BMP280;34673;52.808;17.856;2023-06-24T00:19:43;100705.31;;;19.59
48854;BMP280;34673;52.808;17.856;2023-06-24T00:22:11;100715.88;;;19.57
48854;BMP280;34673;52.808;17.856;2023-06-24T00:24:41;100708.22;;;19.51
48854;BMP280;34673;52.808;17.856;2023-06-24T00:27:10;100715.94;;;19.56
48854;BMP280;34673;52.808;17.856;2023-06-24T00:29:37;100716.06;;;19.53
48854;BMP280;34673;52.808;17.856;2023-06-24T00:32:05;100716.19;;;19.49
48854;BMP280;34673;52.808;17.856;2023-06-24T00:34:32;100721.44;;;19.49
48854;BMP280;34673;52.808;17.856;2023-06-24T00:37:00;100707.63;;;19.44
48854;BMP280;34673;52.808;17.856;2023-06-24T00:39:29;100723.38;;;19.44
48854;BMP280;34673;52.808;17.856;2023-06-24T00:41:57;100722.66;;;19.41
48854;BMP280;34673;52.808;17.856;2023-06-24T00:44:24;100725.19;;;19.42
48854;BMP280;34673;52.808;17.856;2023-06-24T00:46:52;100726.25;;;19.38
48854;BMP280;34673;52.808;17.856;2023-06-24T00:49:19;100723.75;;;19.35
48854;BMP280;34673;52.808;17.856;2023-06-24T00:51:46;100735.00;;;19.37
48854;BMP280;34673;52.808;17.856;2023-06-24T00:54:17;100732.38;;;19.37
48854;BMP280;34673;52.808;17.856;2023-06-24T00:56:46;100731.53;;;19.37
48854;BMP280;34673;52.808;17.856;2023-06-24T00:59:15;100737.63;;;19.37
48854;BMP280;34673;52.808;17.856;2023-06-24T01:01:44;100731.66;;;19.34
48854;BMP280;34673;52.808;17.856;2023-06-24T01:04:13;100742.16;;;19.34
48854;BMP280;34673;52.808;17.856;2023-06-24T01:06:40;100737.75;;;19.34
48854;BMP280;34673;52.808;17.856;2023-06-24T01:09:11;100731.78;;;19.31
48854;BMP280;34673;52.808;17.856;2023-06-24T01:11:39;100732.63;;;19.31
48854;BMP280;34673;52.808;17.856;2023-06-24T01:14:07;100739.69;;;19.29
48854;BMP280;34673;52.808;17.856;2023-06-24T01:25:44;100736.50;;;19.21
48854;BMP280;34673;52.808;17.856;2023-06-24T01:28:33;100745.28;;;19.20
48854;BMP280;34673;52.808;17.856;2023-06-24T01:34:26;100745.28;;;19.20
48854;BMP280;34673;52.808;17.856;2023-06-24T01:40:22;100741.88;;;19.18
48854;BMP280;34673;52.808;17.856;2023-06-24T01:42:53;100746.19;;;19.19
48854;BMP280;34673;52.808;17.856;2023-06-24T01:45:26;100748.81;;;19.19
48854;BMP280;34673;52.808;17.856;2023-06-24T01:48:08;100748.81;;;19.19
48854;BMP280;34673;52.808;17.856;2023-06-24T01:50:39;100751.56;;;19.16
48854;BMP280;34673;52.808;17.856;2023-06-24T01:53:10;100752.34;;;19.18
48854;BMP280;34673;52.808;17.856;2023-06-24T01:55:41;100754.06;;;19.19
48854;BMP280;34673;52.808;17.856;2023-06-24T01:58:10;100748.94;;;19.16
48854;BMP280;34673;52.808;17.856;2023-06-24T02:00:39;100747.22;;;19.15
48854;BMP280;34673;52.808;17.856;2023-06-24T02:03:08;100740.28;;;19.14
48854;BMP280;34673;52.808;17.856;2023-06-24T02:05:37;100732.63;;;19.08
48854;BMP280;34673;52.808;17.856;2023-06-24T02:08:09;100736.88;;;19.12
48854;BMP280;34673;52.808;17.856;2023-06-24T02:10:38;100743.00;;;19.11
48854;BMP280;34673;52.808;17.856;2023-06-24T02:13:08;100740.50;;;19.08
48854;BMP280;34673;52.808;17.856;2023-06-24T02:15:38;100746.72;;;19.05
48854;BMP280;34673;52.808;17.856;2023-06-24T02:18:08;100758.16;;;19.02
48854;BMP280;34673;52.808;17.856;2023-06-24T02:20:37;100755.66;;;18.99
48854;BMP280;34673;52.808;17.856;2023-06-24T02:23:07;100756.69;;;18.95
48854;BMP280;34673;52.808;17.856;2023-06-24T02:25:36;100753.25;;;18.93
48854;BMP280;34673;52.808;17.856;2023-06-24T02:28:08;100763.78;;;18.92
48854;BMP280;34673;52.808;17.856;2023-06-24T02:30:38;100758.63;;;18.90
48854;BMP280;34673;52.808;17.856;2023-06-24T02:33:07;100763.06;;;18.88
48854;BMP280;34673;52.808;17.856;2023-06-24T02:35:34;100758.84;;;18.84
48854;BMP280;34673;52.808;17.856;2023-06-24T02:38:02;100763.06;;;18.88
48854;BMP280;34673;52.808;17.856;2023-06-24T02:40:30;100762.31;;;18.85
48854;BMP280;34673;52.808;17.856;2023-06-24T02:42:58;100761.50;;;18.82
48854;BMP280;34673;52.808;17.856;2023-06-24T02:45:27;100760.78;;;18.79
48854;BMP280;34673;52.808;17.856;2023-06-24T02:47:55;100758.16;;;18.79
48854;BMP280;34673;52.808;17.856;2023-06-24T02:50:25;100762.47;;;18.80
48854;BMP280;34673;52.808;17.856;2023-06-24T02:52:54;100762.66;;;18.74
48854;BMP280;34673;52.808;17.856;2023-06-24T02:55:26;100767.88;;;18.75
48854;BMP280;34673;52.808;17.856;2023-06-24T02:58:00;100759.25;;;18.72
48854;BMP280;34673;52.808;17.856;2023-06-24T03:01:04;100761.16;;;18.67
48854;BMP280;34673;52.808;17.856;2023-06-24T03:03:55;100766.22;;;18.73
48854;BMP280;34673;52.808;17.856;2023-06-24T03:06:24;100769.72;;;18.72
48854;BMP280;34673;52.808;17.856;2023-06-24T03:08:55;100771.53;;;18.70
48854;BMP280;34673;52.808;17.856;2023-06-24T03:11:23;100760.28;;;18.68
48854;BMP280;34673;52.808;17.856;2023-06-24T03:13:50;100785.56;;;18.69
48854;BMP280;34673;52.808;17.856;2023-06-24T03:16:44;100785.56;;;18.69
48854;BMP280;34673;52.808;17.856;2023-06-24T03:19:14;100792.47;;;18.71
48854;BMP280;34673;52.808;17.856;2023-06-24T03:21:42;100795.06;;;18.71
48854;BMP280;34673;52.808;17.856;2023-06-24T03:24:11;100793.47;;;18.67
48854;BMP280;34673;52.808;17.856;2023-06-24T03:26:41;100807.22;;;18.74
48854;BMP280;34673;52.808;17.856;2023-06-24T03:29:11;100809.97;;;18.71
48854;BMP280;34673;52.808;17.856;2023-06-24T03:31:50;100806.84;;;18.59
48854;BMP280;34673;52.808;17.856;2023-06-24T03:34:21;100825.09;;;18.63
48854;BMP280;34673;52.808;17.856;2023-06-24T03:36:49;100830.31;;;18.63
48854;BMP280;34673;52.808;17.856;2023-06-24T03:39:17;100831.53;;;18.52
48854;BMP280;34673;52.808;17.856;2023-06-24T03:41:44;100840.09;;;18.57
48854;BMP280;34673;52.808;17.856;2023-06-24T03:44:13;100833.22;;;18.53
48854;BMP280;34673;52.808;17.856;2023-06-24T03:46:41;100845.34;;;18.57
48854;BMP280;34673;52.808;17.856;2023-06-24T03:49:10;100848.78;;;18.59
48854;BMP280;34673;52.808;17.856;2023-06-24T03:51:37;100841.69;;;18.61
48854;BMP280;34673;52.808;17.856;2023-06-24T03:54:04;100832.16;;;18.59
48854;BMP280;34673;52.808;17.856;2023-06-24T03:56:32;100843.59;;;18.56
48854;BMP280;34673;52.808;17.856;2023-06-24T03:58:59;100828.94;;;18.51
48854;BMP280;34673;52.808;17.856;2023-06-24T04:01:26;100841.81;;;18.58
48854;BMP280;34673;52.808;17.856;2023-06-24T04:03:59;100840.94;;;18.58
48854;BMP280;34673;52.808;17.856;2023-06-24T04:06:26;100841.81;;;18.58
48854;BMP280;34673;52.808;17.856;2023-06-24T04:08:53;100835.72;;;18.58
48854;BMP280;34673;52.808;17.856;2023-06-24T04:11:22;100843.53;;;18.59
48854;BMP280;34673;52.808;17.856;2023-06-24T04:13:49;100833.94;;;18.58
48854;BMP280;34673;52.808;17.856;2023-06-24T04:16:17;100822.66;;;18.56
48854;BMP280;34673;52.808;17.856;2023-06-24T04:18:44;100824.38;;;18.57
48854;BMP280;34673;52.808;17.856;2023-06-24T04:21:12;100840.00;;;18.60
48854;BMP280;34673;52.808;17.856;2023-06-24T04:23:39;100841.69;;;18.61
48854;BMP280;34673;52.808;17.856;2023-06-24T04:26:06;100843.47;;;18.61
48854;BMP280;34673;52.808;17.856;2023-06-24T04:28:34;100846.19;;;18.58
48854;BMP280;34673;52.808;17.856;2023-06-24T04:31:01;100852.28;;;18.58
48854;BMP280;34673;52.808;17.856;2023-06-24T04:33:28;100856.56;;;18.61
48854;BMP280;34673;52.808;17.856;2023-06-24T04:35:55;100857.41;;;18.61
48854;BMP280;34673;52.808;17.856;2023-06-24T04:38:24;100867.78;;;18.65
48854;BMP280;34673;52.808;17.856;2023-06-24T04:40:52;100864.28;;;18.66
48854;BMP280;34673;52.808;17.856;2023-06-24T04:43:20;100868.56;;;18.68
48854;BMP280;34673;52.808;17.856;2023-06-24T04:45:47;100871.13;;;18.70
48854;BMP280;34673;52.808;17.856;2023-06-24T04:48:15;100876.44;;;18.68
48854;BMP280;34673;52.808;17.856;2023-06-24T04:50:42;100871.13;;;18.70
48854;BMP280;34673;52.808;17.856;2023-06-24T04:53:10;100871.03;;;18.73
48854;BMP280;34673;52.808;17.856;2023-06-24T04:55:37;100869.22;;;18.75
48854;BMP280;34673;52.808;17.856;2023-06-24T04:58:05;100865.63;;;18.79
48854;BMP280;34673;52.808;17.856;2023-06-24T05:00:32;100866.34;;;18.82
48854;BMP280;34673;52.808;17.856;2023-06-24T05:02:59;100865.50;;;18.82
48854;BMP280;34673;52.808;17.856;2023-06-24T05:05:27;100861.06;;;18.84
48854;BMP280;34673;52.808;17.856;2023-06-24T05:07:55;100856.63;;;18.86
48854;BMP280;34673;52.808;17.856;2023-06-24T05:10:22;100866.91;;;18.92
48854;BMP280;34673;52.808;17.856;2023-06-24T05:12:49;100865.06;;;18.94
48854;BMP280;34673;52.808;17.856;2023-06-24T05:15:17;100866.00;;;18.93
48854;BMP280;34673;52.808;17.856;2023-06-24T05:17:44;100864.22;;;18.94
48854;BMP280;34673;52.808;17.856;2023-06-24T05:20:12;100858.97;;;18.94
48854;BMP280;34673;52.808;17.856;2023-06-24T05:22:39;100868.50;;;18.96
48854;BMP280;34673;52.808;17.856;2023-06-24T05:25:07;100865.06;;;18.94
48854;BMP280;34673;52.808;17.856;2023-06-24T05:27:34;100863.25;;;18.96
48854;BMP280;34673;52.808;17.856;2023-06-24T05:30:02;100861.56;;;18.95
48854;BMP280;34673;52.808;17.856;2023-06-24T05:32:29;100862.53;;;18.93
48854;BMP280;34673;52.808;17.856;2023-06-24T05:34:57;100853.00;;;18.90
48854;BMP280;34673;52.808;17.856;2023-06-24T05:37:24;100854.81;;;18.88
48854;BMP280;34673;52.808;17.856;2023-06-24T05:39:51;100857.38;;;18.90
48854;BMP280;34673;52.808;17.856;2023-06-24T05:42:20;100860.88;;;18.90
48854;BMP280;34673;52.808;17.856;2023-06-24T05:44:47;100865.19;;;18.91
48854;BMP280;34673;52.808;17.856;2023-06-24T05:47:14;100865.28;;;18.88
48854;BMP280;34673;52.808;17.856;2023-06-24T05:49:42;100866.25;;;18.86
48854;BMP280;34673;52.808;17.856;2023-06-24T05:52:09;100862.81;;;18.83
48854;BMP280;34673;52.808;17.856;2023-06-24T05:54:36;100870.31;;;18.94
48854;BMP280;34673;52.808;17.856;2023-06-24T05:57:04;100865.00;;;18.97
48854;BMP280;34673;52.808;17.856;2023-06-24T05:59:34;100868.41;;;18.99
48854;BMP280;34673;52.808;17.856;2023-06-24T06:02:01;100870.00;;;19.03
48854;BMP280;34673;52.808;17.856;2023-06-24T06:04:29;100858.59;;;19.04
48854;BMP280;34673;52.808;17.856;2023-06-24T06:06:56;100852.25;;;19.12
48854;BMP280;34673;52.808;17.856;2023-06-24T06:09:23;100850.19;;;19.20
48854;BMP280;34673;52.808;17.856;2023-06-24T06:11:51;100858.41;;;19.34
48854;BMP280;34673;52.808;17.856;2023-06-24T06:14:18;100855.56;;;19.40
48854;BMP280;34673;52.808;17.856;2023-06-24T06:16:45;100856.25;;;19.45
48854;BMP280;34673;52.808;17.856;2023-06-24T06:19:12;100854.31;;;19.51
48854;BMP280;34673;52.808;17.856;2023-06-24T06:21:40;100856.72;;;19.57
48854;BMP280;34673;52.808;17.856;2023-06-24T06:24:07;100846.31;;;19.54
48854;BMP280;34673;52.808;17.856;2023-06-24T06:26:37;100850.56;;;19.58
48854;BMP280;34673;52.808;17.856;2023-06-24T06:29:07;100854.00;;;19.60
48854;BMP280;34673;52.808;17.856;2023-06-24T06:31:34;100847.88;;;19.59
48854;BMP280;34673;52.808;17.856;2023-06-24T06:34:01;100847.03;;;19.59
48854;BMP280;34673;52.808;17.856;2023-06-24T06:36:29;100848.53;;;19.66
48854;BMP280;34673;52.808;17.856;2023-06-24T06:38:57;100855.50;;;19.67
48854;BMP280;34673;52.808;17.856;2023-06-24T06:41:24;100842.31;;;19.68
48854;BMP280;34673;52.808;17.856;2023-06-24T06:43:53;100842.41;;;19.65
48854;BMP280;34673;52.808;17.856;2023-06-24T06:46:20;100842.31;;;19.68
48854;BMP280;34673;52.808;17.856;2023-06-24T06:48:48;100847.38;;;19.73
48854;BMP280;34673;52.808;17.856;2023-06-24T06:51:16;100862.22;;;19.74
48854;BMP280;34673;52.808;17.856;2023-06-24T06:53:45;100851.47;;;19.80
48854;BMP280;34673;52.808;17.856;2023-06-24T06:56:23;100845.88;;;19.89
48854;BMP280;34673;52.808;17.856;2023-06-24T06:58:52;100855.53;;;19.89
48854;BMP280;34673;52.808;17.856;2023-06-24T07:01:21;100849.16;;;19.95
48854;BMP280;34673;52.808;17.856;2023-06-24T07:03:49;100861.72;;;20.10
48854;BMP280;34673;52.808;17.856;2023-06-24T07:06:20;100849.69;;;20.26
48854;BMP280;34673;52.808;17.856;2023-06-24T07:08:47;100863.97;;;20.63
48854;BMP280;34673;52.808;17.856;2023-06-24T07:11:14;100848.28;;;20.82
48854;BMP280;34673;52.808;17.856;2023-06-24T07:13:42;100857.28;;;20.97
48854;BMP280;34673;52.808;17.856;2023-06-24T07:16:09;100852.72;;;21.00
48854;BMP280;34673;52.808;17.856;2023-06-24T07:18:36;100832.63;;;20.99
48854;BMP280;34673;52.808;17.856;2023-06-24T07:21:04;100850.94;;;21.21
48854;BMP280;34673;52.808;17.856;2023-06-24T07:23:31;100849.75;;;21.29
48854;BMP280;34673;52.808;17.856;2023-06-24T07:25:58;100851.84;;;21.41
48854;BMP280;34673;52.808;17.856;2023-06-24T07:28:29;100856.84;;;21.47
48854;BMP280;34673;52.808;17.856;2023-06-24T07:30:57;100863.97;;;21.45
48854;BMP280;34673;52.808;17.856;2023-06-24T07:33:24;100853.56;;;21.42
48854;BMP280;34673;52.808;17.856;2023-06-24T07:35:52;100860.66;;;21.40
48854;BMP280;34673;52.808;17.856;2023-06-24T07:38:19;100853.28;;;21.48
48854;BMP280;34673;52.808;17.856;2023-06-24T07:40:46;100861.25;;;21.65
48854;BMP280;34673;52.808;17.856;2023-06-24T07:43:14;100854.28;;;21.64
48854;BMP280;34673;52.808;17.856;2023-06-24T07:45:41;100866.53;;;21.65
48854;BMP280;34673;52.808;17.856;2023-06-24T07:48:09;100866.00;;;21.57
48854;BMP280;34673;52.808;17.856;2023-06-24T07:50:37;100870.84;;;21.48
48854;BMP280;34673;52.808;17.856;2023-06-24T07:53:05;100866.44;;;21.28
48854;BMP280;34673;52.808;17.856;2023-06-24T07:55:32;100869.88;;;21.30
48854;BMP280;34673;52.808;17.856;2023-06-24T07:58:00;100873.69;;;21.22
48854;BMP280;34673;52.808;17.856;2023-06-24T08:00:29;100872.78;;;21.23
48854;BMP280;34673;52.808;17.856;2023-06-24T08:02:58;100878.69;;;21.29
48854;BMP280;34673;52.808;17.856;2023-06-24T08:05:26;100872.34;;;21.33
48854;BMP280;34673;52.808;17.856;2023-06-24T08:07:53;100874.84;;;21.36
48854;BMP280;34673;52.808;17.856;2023-06-24T08:10:21;100868.69;;;21.37
48854;BMP280;34673;52.808;17.856;2023-06-24T08:12:48;100877.03;;;21.46
48854;BMP280;34673;52.808;17.856;2023-06-24T08:15:16;100878.63;;;21.51
48854;BMP280;34673;52.808;17.856;2023-06-24T08:17:43;100881.25;;;21.51
48854;BMP280;34673;52.808;17.856;2023-06-24T08:20:11;100885.53;;;21.53
48854;BMP280;34673;52.808;17.856;2023-06-24T08:22:39;100883.03;;;21.50
48854;BMP280;34673;52.808;17.856;2023-06-24T08:25:06;100889.84;;;21.54
48854;BMP280;34673;52.808;17.856;2023-06-24T08:27:34;100888.44;;;21.47
48854;BMP280;34673;52.808;17.856;2023-06-24T08:30:01;100891.84;;;21.49
48854;BMP280;34673;52.808;17.856;2023-06-24T08:32:28;100895.97;;;21.74
48854;BMP280;34673;52.808;17.856;2023-06-24T08:34:56;100892.28;;;22.16
48854;BMP280;34673;52.808;17.856;2023-06-24T08:37:23;100897.94;;;22.44
48854;BMP280;34673;52.808;17.856;2023-06-24T08:39:50;100893.59;;;22.43
48854;BMP280;34673;52.808;17.856;2023-06-24T08:42:17;100894.25;;;22.48
48854;BMP280;34673;52.808;17.856;2023-06-24T08:44:45;100897.03;;;22.63
48854;BMP280;34673;52.808;17.856;2023-06-24T08:47:12;100889.28;;;22.77
48854;BMP280;34673;52.808;17.856;2023-06-24T08:49:48;100887.44;;;22.79
48854;BMP280;34673;52.808;17.856;2023-06-24T08:52:16;100890.06;;;22.79
48854;BMP280;34673;52.808;17.856;2023-06-24T08:54:46;100904.50;;;22.72
48854;BMP280;34673;52.808;17.856;2023-06-24T08:57:15;100895.97;;;22.67
48854;BMP280;34673;52.808;17.856;2023-06-24T08:59:43;100900.47;;;22.65
48854;BMP280;34673;52.808;17.856;2023-06-24T09:02:10;100899.91;;;22.58
48854;BMP280;34673;52.808;17.856;2023-06-24T09:04:38;100897.97;;;22.62
48854;BMP280;34673;52.808;17.856;2023-06-24T09:07:06;100888.50;;;22.57
48854;BMP280;34673;52.808;17.856;2023-06-24T09:09:42;100892.88;;;22.76
48854;BMP280;34673;52.808;17.856;2023-06-24T09:12:13;100890.13;;;22.96
48854;BMP280;34673;52.808;17.856;2023-06-24T09:14:48;100897.69;;;23.20
48854;BMP280;34673;52.808;17.856;2023-06-24T09:17:15;100894.84;;;23.40
48854;BMP280;34673;52.808;17.856;2023-06-24T09:19:43;100883.59;;;23.70
48854;BMP280;34673;52.808;17.856;2023-06-24T09:22:10;100886.59;;;23.96
48854;BMP280;34673;52.808;17.856;2023-06-24T09:24:46;100888.47;;;24.09
48854;BMP280;34673;52.808;17.856;2023-06-24T09:27:14;100879.44;;;24.29
48854;BMP280;34673;52.808;17.856;2023-06-24T09:29:43;100885.41;;;24.49
48854;BMP280;34673;52.808;17.856;2023-06-24T09:32:10;100884.34;;;24.67
48854;BMP280;34673;52.808;17.856;2023-06-24T09:34:38;100890.56;;;24.81
48854;BMP280;34673;52.808;17.856;2023-06-24T09:37:06;100882.31;;;25.01
48854;BMP280;34673;52.808;17.856;2023-06-24T09:39:39;100886.72;;;25.16
48854;BMP280;34673;52.808;17.856;2023-06-24T09:42:06;100879.16;;;25.25
48854;BMP280;34673;52.808;17.856;2023-06-24T09:44:34;100875.75;;;25.37
48854;BMP280;34673;52.808;17.856;2023-06-24T09:47:02;100872.72;;;25.43
48854;BMP280;34673;52.808;17.856;2023-06-24T09:49:29;100876.88;;;25.61
48854;BMP280;34673;52.808;17.856;2023-06-24T09:51:58;100881.97;;;25.64
48854;BMP280;34673;52.808;17.856;2023-06-24T09:54:28;100873.09;;;25.65
48854;BMP280;34673;52.808;17.856;2023-06-24T09:57:04;100873.25;;;25.77
48854;BMP280;34673;52.808;17.856;2023-06-24T09:59:33;100879.50;;;25.76
48854;BMP280;34673;52.808;17.856;2023-06-24T10:02:02;100868.66;;;25.66
48854;BMP280;34673;52.808;17.856;2023-06-24T10:04:31;100871.88;;;25.42
48854;BMP280;34673;52.808;17.856;2023-06-24T10:06:59;100874.63;;;25.41
48854;BMP280;34673;52.808;17.856;2023-06-24T10:09:27;100876.31;;;25.71
48854;BMP280;34673;52.808;17.856;2023-06-24T10:11:55;100873.81;;;25.96
48854;BMP280;34673;52.808;17.856;2023-06-24T10:14:23;100866.97;;;26.06
48854;BMP280;34673;52.808;17.856;2023-06-24T10:16:50;100880.31;;;26.05
48854;BMP280;34673;52.808;17.856;2023-06-24T10:19:20;100878.91;;;25.99
48854;BMP280;34673;52.808;17.856;2023-06-24T10:21:54;100872.28;;;26.06
48854;BMP280;34673;52.808;17.856;2023-06-24T10:24:41;100878.63;;;26.31
48854;BMP280;34673;52.808;17.856;2023-06-24T10:27:16;100881.28;;;26.31
48854;BMP280;34673;52.808;17.856;2023-06-24T10:29:48;100871.69;;;26.16
48854;BMP280;34673;52.808;17.856;2023-06-24T10:32:17;100877.78;;;26.03
48854;BMP280;34673;52.808;17.856;2023-06-24T10:35:03;100877.50;;;25.94
48854;BMP280;34673;52.808;17.856;2023-06-24T10:37:32;100881.97;;;25.93
48854;BMP280;34673;52.808;17.856;2023-06-24T10:40:00;100874.38;;;26.01
48854;BMP280;34673;52.808;17.856;2023-06-24T10:42:40;100873.19;;;26.20
48854;BMP280;34673;52.808;17.856;2023-06-24T10:45:16;100870.41;;;26.21
48854;BMP280;34673;52.808;17.856;2023-06-24T10:47:45;100874.88;;;26.21
48854;BMP280;34673;52.808;17.856;2023-06-24T10:50:19;100869.41;;;26.37
48854;BMP280;34673;52.808;17.856;2023-06-24T10:52:50;100858.56;;;26.54
48854;BMP280;34673;52.808;17.856;2023-06-24T10:55:23;100865.91;;;26.76
48854;BMP280;34673;52.808;17.856;2023-06-24T10:57:54;100870.06;;;26.67
48854;BMP280;34673;52.808;17.856;2023-06-24T11:00:21;100868.97;;;26.30
48854;BMP280;34673;52.808;17.856;2023-06-24T11:02:49;100866.72;;;26.24
48854;BMP280;34673;52.808;17.856;2023-06-24T11:05:18;100868.13;;;26.29
48854;BMP280;34673;52.808;17.856;2023-06-24T11:07:45;100857.75;;;26.39
48854;BMP280;34673;52.808;17.856;2023-06-24T11:10:15;100865.06;;;26.63
48854;BMP280;34673;52.808;17.856;2023-06-24T11:12:43;100867.63;;;26.77
48854;BMP280;34673;52.808;17.856;2023-06-24T11:15:12;100852.78;;;26.87
48854;BMP280;34673;52.808;17.856;2023-06-24T11:17:40;100856.19;;;27.02
48854;BMP280;34673;52.808;17.856;2023-06-24T11:20:12;100853.34;;;27.18
48854;BMP280;34673;52.808;17.856;2023-06-24T11:22:42;100844.94;;;27.24
48854;BMP280;34673;52.808;17.856;2023-06-24T11:25:16;100855.75;;;27.08
48854;BMP280;34673;52.808;17.856;2023-06-24T11:27:44;100857.88;;;27.16
48854;BMP280;34673;52.808;17.856;2023-06-24T11:30:12;100842.69;;;27.05
48854;BMP280;34673;52.808;17.856;2023-06-24T11:32:40;100858.50;;;26.81
48854;BMP280;34673;52.808;17.856;2023-06-24T11:35:10;100851.81;;;26.48
48854;BMP280;34673;52.808;17.856;2023-06-24T11:37:41;100851.84;;;26.08
48854;BMP280;34673;52.808;17.856;2023-06-24T11:40:10;100857.34;;;25.91
48854;BMP280;34673;52.808;17.856;2023-06-24T11:42:39;100851.50;;;25.86
48854;BMP280;34673;52.808;17.856;2023-06-24T11:45:09;100852.25;;;25.88
48854;BMP280;34673;52.808;17.856;2023-06-24T11:47:41;100846.31;;;26.12
48854;BMP280;34673;52.808;17.856;2023-06-24T11:50:09;100852.03;;;26.45
48854;BMP280;34673;52.808;17.856;2023-06-24T11:52:44;100846.19;;;26.80
48854;BMP280;34673;52.808;17.856;2023-06-24T11:55:23;100849.81;;;27.05
48854;BMP280;34673;52.808;17.856;2023-06-24T12:00:26;100836.66;;;26.90
48854;BMP280;34673;52.808;17.856;2023-06-24T12:02:56;100843.75;;;27.03
48854;BMP280;34673;52.808;17.856;2023-06-24T12:05:29;100842.38;;;27.10
48854;BMP280;34673;52.808;17.856;2023-06-24T12:07:58;100834.53;;;27.21
48854;BMP280;34673;52.808;17.856;2023-06-24T12:10:27;100832.19;;;27.29
48854;BMP280;34673;52.808;17.856;2023-06-24T12:12:56;100825.81;;;27.32
48854;BMP280;34673;52.808;17.856;2023-06-24T12:15:25;100830.06;;;27.34
48854;BMP280;34673;52.808;17.856;2023-06-24T12:17:52;100828.16;;;27.36
48854;BMP280;34673;52.808;17.856;2023-06-24T12:20:20;100831.66;;;27.37
48854;BMP280;34673;52.808;17.856;2023-06-24T12:22:48;100832.50;;;27.37
48854;BMP280;34673;52.808;17.856;2023-06-24T12:25:16;100826.88;;;27.29
48854;BMP280;34673;52.808;17.856;2023-06-24T12:27:45;100828.16;;;27.24
48854;BMP280;34673;52.808;17.856;2023-06-24T12:30:13;100829.44;;;27.31
48854;BMP280;34673;52.808;17.856;2023-06-24T12:32:40;100839.09;;;27.45
48854;BMP280;34673;52.808;17.856;2023-06-24T12:35:08;100835.53;;;27.44
48854;BMP280;34673;52.808;17.856;2023-06-24T12:37:38;100835.16;;;27.37
48854;BMP280;34673;52.808;17.856;2023-06-24T12:40:06;100832.19;;;27.29
48854;BMP280;34673;52.808;17.856;2023-06-24T12:42:34;100821.56;;;27.29
48854;BMP280;34673;52.808;17.856;2023-06-24T12:45:01;100824.53;;;27.25
48854;BMP280;34673;52.808;17.856;2023-06-24T12:47:29;100826.78;;;27.18
48854;BMP280;34673;52.808;17.856;2023-06-24T12:49:56;100825.19;;;27.28
48854;BMP280;34673;52.808;17.856;2023-06-24T12:52:24;100833.47;;;27.36
48854;BMP280;34673;52.808;17.856;2023-06-24T12:54:51;100833.03;;;27.43
48854;BMP280;34673;52.808;17.856;2023-06-24T12:57:18;100827.94;;;27.39
48854;BMP280;34673;52.808;17.856;2023-06-24T12:59:46;100833.25;;;27.39
48854;BMP280;34673;52.808;17.856;2023-06-24T13:02:13;100837.06;;;27.35
48854;BMP280;34673;52.808;17.856;2023-06-24T13:04:40;100834.09;;;27.27
48854;BMP280;34673;52.808;17.856;2023-06-24T13:07:08;100835.03;;;27.01
48854;BMP280;34673;52.808;17.856;2023-06-24T13:09:36;100841.69;;;26.68
48854;BMP280;34673;52.808;17.856;2023-06-24T13:12:04;100841.22;;;26.48
48854;BMP280;34673;52.808;17.856;2023-06-24T13:14:31;100839.31;;;26.50
48854;BMP280;34673;52.808;17.856;2023-06-24T13:16:59;100835.91;;;26.48
48854;BMP280;34673;52.808;17.856;2023-06-24T13:19:26;100830.44;;;26.51
48854;BMP280;34673;52.808;17.856;2023-06-24T13:21:54;100822.63;;;26.63
48854;BMP280;34673;52.808;17.856;2023-06-24T13:24:21;100820.69;;;26.78
48854;BMP280;34673;52.808;17.856;2023-06-24T13:26:48;100831.34;;;26.90
48854;BMP280;34673;52.808;17.856;2023-06-24T13:29:16;100831.13;;;26.93
48854;BMP280;34673;52.808;17.856;2023-06-24T13:31:43;100826.88;;;26.91
48854;BMP280;34673;52.808;17.856;2023-06-24T13:34:11;100829.84;;;26.86
48854;BMP280;34673;52.808;17.856;2023-06-24T13:36:38;100833.88;;;26.79
48854;BMP280;34673;52.808;17.856;2023-06-24T13:39:07;100835.56;;;26.80
48854;BMP280;34673;52.808;17.856;2023-06-24T13:41:35;100833.47;;;26.85
48854;BMP280;34673;52.808;17.856;2023-06-24T13:44:03;100830.91;;;26.71
48854;BMP280;34673;52.808;17.856;2023-06-24T13:46:31;100837.81;;;26.46
48854;BMP280;34673;52.808;17.856;2023-06-24T13:48:59;100840.94;;;26.26
48854;BMP280;34673;52.808;17.856;2023-06-24T13:51:30;100839.97;;;26.14
48854;BMP280;34673;52.808;17.856;2023-06-24T13:53:57;100835.22;;;26.19
48854;BMP280;34673;52.808;17.856;2023-06-24T13:56:25;100827.78;;;26.24
48854;BMP280;34673;52.808;17.856;2023-06-24T13:58:53;100809.97;;;26.26
48854;BMP280;34673;52.808;17.856;2023-06-24T14:01:21;100822.31;;;26.40
48854;BMP280;34673;52.808;17.856;2023-06-24T14:03:50;100829.13;;;26.44
48854;BMP280;34673;52.808;17.856;2023-06-24T14:06:21;100825.63;;;26.44
48854;BMP280;34673;52.808;17.856;2023-06-24T14:08:49;100818.91;;;26.38
48854;BMP280;34673;52.808;17.856;2023-06-24T14:11:17;100819.13;;;26.35
48854;BMP280;34673;52.808;17.856;2023-06-24T14:13:45;100820.84;;;26.36